Time;durP1;ratioP1;P1;durP2;ratioP2;P2;SDS_P1;SDS_P2;PMS_P1;PMS_P2;Temp;Humidity;BMP_temperature;BMP_pressure;BME280_temperature;BME280_humidity;BME280_pressure;Samples;Min_cycle;Max_cycle;Signal;HPM_P1;HPM_P2
2023/03/08 00:01:27;;;;;;;;;;;;;;;16.65;41.59;91829.00;5044848;28;19979;-85
2023/03/08 00:03:53;;;;;;;;;;;;;;;16.64;41.42;91824.81;5050266;28;20415;-84
2023/03/08 00:06:19;;;;;;;;;;;;;;;16.66;41.69;91838.66;5064903;28;19964;-85
2023/03/08 00:08:45;;;;;;;;;;;;;;;16.66;41.41;91832.47;5067690;28;19924;-85
2023/03/08 00:11:10;;;;;;;;;;;;;;;16.66;41.42;91840.66;5067327;28;19931;-84
2023/03/08 00:13:36;;;;;;;;;;;;;;;16.65;41.34;91831.00;5057362;28;20320;-84
2023/03/08 00:16:05;;;;;;;;;;;;;;;16.65;41.56;91837.19;5083672;28;19978;-84
2023/03/08 00:18:30;;;;;;;;;;;;;;;16.64;41.74;91845.91;5064700;28;19919;-84
2023/03/08 00:20:59;;;;;;;;;;;;;;;16.63;41.78;91842.44;5068352;28;19924;-84
2023/03/08 00:23:24;;;;;;;;;;;;;;;16.64;41.49;91841.19;5067793;28;19936;-84
2023/03/08 00:25:53;;;;;;;;;;;;;;;16.66;42.22;91848.84;5067132;28;20351;-85
2023/03/08 00:28:18;;;;;;;;;;;;;;;16.65;42.43;91856.28;5066246;28;19924;-85
2023/03/08 00:30:43;;;;;;;;;;;;;;;16.65;41.73;91861.00;5051346;28;20020;-84
2023/03/08 00:33:08;;;;;;;;;;;;;;;16.65;41.49;91852.81;5058265;28;19936;-85
2023/03/08 00:35:33;;;;;;;;;;;;;;;16.65;41.72;91864.47;5068818;28;20348;-85
2023/03/08 00:37:59;;;;;;;;;;;;;;;16.65;42.38;91866.47;5070795;28;19930;-85
2023/03/08 00:40:24;;;;;;;;;;;;;;;16.65;41.88;91867.19;5048556;28;19966;-84
2023/03/08 00:42:49;;;;;;;;;;;;;;;16.65;41.32;91866.47;5071216;28;19920;-85
2023/03/08 00:45:14;;;;;;;;;;;;;;;16.65;41.61;91874.66;5069985;28;19998;-84
2023/03/08 00:47:40;;;;;;;;;;;;;;;16.65;41.59;91871.94;5053013;28;19920;-86
2023/03/08 00:50:05;;;;;;;;;;;;;;;16.63;41.08;91872.47;5070634;28;20595;-85
2023/03/08 00:52:31;;;;;;;;;;;;;;;16.63;41.37;91875.19;5070430;28;19938;-84
2023/03/08 00:54:56;;;;;;;;;;;;;;;16.64;41.94;91865.72;5088832;28;20128;-84
2023/03/08 00:57:21;;;;;;;;;;;;;;;16.63;41.74;91864.28;5070229;28;19932;-85
2023/03/08 00:59:46;;;;;;;;;;;;;;;16.63;41.94;91877.91;5070006;28;19920;-85
2023/03/08 01:02:12;;;;;;;;;;;;;;;16.64;42.59;91870.47;5052955;28;20332;-85
2023/03/08 01:04:37;;;;;;;;;;;;;;;16.63;41.78;91868.97;5089355;28;19959;-85
2023/03/08 01:07:02;;;;;;;;;;;;;;;16.63;42.51;91864.28;5055582;28;20335;-85
2023/03/08 01:09:27;;;;;;;;;;;;;;;16.64;41.90;91876.66;5052211;28;19973;-85
2023/03/08 01:11:53;;;;;;;;;;;;;;;16.64;41.64;91878.66;5050407;28;19928;-84
2023/03/08 01:14:18;;;;;;;;;;;;;;;16.63;41.67;91869.72;5066331;28;19924;-84
2023/03/08 01:16:43;;;;;;;;;;;;;;;16.62;41.46;91873.69;5055406;28;20426;-84
2023/03/08 01:19:08;;;;;;;;;;;;;;;16.62;41.69;91879.16;5048181;28;19959;-84
2023/03/08 01:21:34;;;;;;;;;;;;;;;16.63;41.64;91869.72;5050533;28;19924;-84
2023/03/08 01:23:59;;;;;;;;;;;;;;;16.63;41.81;91872.47;5050481;28;19928;-85
2023/03/08 01:26:24;;;;;;;;;;;;;;;16.64;42.02;91873.19;5025365;28;19956;-85
2023/03/08 01:28:50;;;;;;;;;;;;;;;16.63;41.90;91867.00;5029674;28;19975;-84
2023/03/08 01:31:16;;;;;;;;;;;;;;;16.64;42.28;91863.00;5023443;28;19924;-85
2023/03/08 01:33:41;;;;;;;;;;;;;;;16.63;42.54;91875.19;5046566;28;20387;-85
2023/03/08 01:36:07;;;;;;;;;;;;;;;16.62;41.51;91864.78;5043583;28;19960;-85
2023/03/08 01:38:33;;;;;;;;;;;;;;;16.63;41.58;91863.50;5028829;28;20015;-85
2023/03/08 01:40:58;;;;;;;;;;;;;;;16.63;42.15;91866.25;5050186;28;19951;-85
2023/03/08 01:43:29;;;;;;;;;;;;;;;16.63;41.29;91868.97;5049611;28;19924;-85
2023/03/08 01:46:00;;;;;;;;;;;;;;;16.61;41.83;91866.78;5045978;28;19929;-85
2023/03/08 01:48:28;;;;;;;;;;;;;;;16.60;42.17;91862.59;5057266;28;19925;-84
2023/03/08 01:50:53;;;;;;;;;;;;;;;16.60;41.49;91859.84;5029811;28;19928;-85
2023/03/08 01:53:19;;;;;;;;;;;;;;;16.61;41.55;91857.88;5066220;28;19936;-85
2023/03/08 01:55:44;;;;;;;;;;;;;;;16.60;41.59;91865.31;5049512;28;20550;-85
2023/03/08 01:58:09;;;;;;;;;;;;;;;16.62;42.58;91867.50;5045079;28;19924;-84
2023/03/08 02:00:34;;;;;;;;;;;;;;;16.60;42.13;91861.84;5064731;28;19925;-85
2023/03/08 02:03:00;;;;;;;;;;;;;;;16.61;42.57;91855.13;5028646;28;19928;-84
2023/03/08 02:05:25;;;;;;;;;;;;;;;16.62;41.87;91857.31;5048319;28;20019;-85
2023/03/08 02:07:52;;;;;;;;;;;;;;;16.61;41.92;91861.31;5046562;28;19983;-84
2023/03/08 02:10:17;;;;;;;;;;;;;;;16.61;41.58;91858.59;5066961;28;19990;-85
2023/03/08 02:12:42;;;;;;;;;;;;;;;16.63;42.89;91866.25;5046134;28;20256;-85
2023/03/08 02:15:08;;;;;;;;;;;;;;;16.62;42.15;91870.22;5052307;28;19928;-84
2023/03/08 02:17:34;;;;;;;;;;;;;;;16.62;42.23;91873.69;5059193;28;20451;-85
2023/03/08 02:20:09;;;;;;;;;;;;;;;16.61;41.88;91874.22;5069803;28;19967;-84
2023/03/08 02:22:38;;;;;;;;;;;;;;;16.61;41.59;91869.50;5068200;28;20656;-84
2023/03/08 02:25:08;;;;;;;;;;;;;;;16.60;41.54;91862.59;5069393;28;19932;-84
2023/03/08 02:27:33;;;;;;;;;;;;;;;16.62;41.73;91862.78;5051526;28;20039;-84
2023/03/08 02:29:58;;;;;;;;;;;;;;;16.60;41.29;91873.50;5068871;28;20019;-84
2023/03/08 02:32:24;;;;;;;;;;;;;;;16.59;41.56;91866.56;5051627;28;19955;-85
2023/03/08 02:34:49;;;;;;;;;;;;;;;16.61;42.56;91868.78;5061379;28;19957;-85
2023/03/08 02:37:14;;;;;;;;;;;;;;;16.60;41.50;91864.59;5045969;28;19928;-85
2023/03/08 02:39:39;;;;;;;;;;;;;;;16.62;42.27;91862.06;5065074;28;20378;-84
2023/03/08 02:42:05;;;;;;;;;;;;;;;16.62;42.98;91870.22;5067601;28;19924;-85
2023/03/08 02:44:30;;;;;;;;;;;;;;;16.61;41.98;91863.31;5079132;28;19955;-85
2023/03/08 02:46:55;;;;;;;;;;;;;;;16.61;42.64;91868.78;5068119;28;20007;-85
2023/03/08 02:49:20;;;;;;;;;;;;;;;16.59;41.91;91860.38;5061606;28;19928;-84
2023/03/08 02:51:46;;;;;;;;;;;;;;;16.59;41.73;91871.31;5068721;28;20005;-85
2023/03/08 02:54:11;;;;;;;;;;;;;;;16.60;42.91;91878.94;5071552;28;19925;-84
2023/03/08 02:56:36;;;;;;;;;;;;;;;16.60;42.77;91878.94;5068801;28;19962;-84
2023/03/08 02:59:02;;;;;;;;;;;;;;;16.60;42.29;91883.69;5051759;28;19924;-84
2023/03/08 03:01:27;;;;;;;;;;;;;;;16.60;42.61;91883.69;5050790;28;19935;-84
2023/03/08 03:03:53;;;;;;;;;;;;;;;16.59;42.51;91885.66;5087082;28;19972;-84
2023/03/08 03:06:18;;;;;;;;;;;;;;;16.59;42.44;91885.66;5062930;28;19950;-86
2023/03/08 03:08:44;;;;;;;;;;;;;;;16.60;42.02;91889.13;5047148;28;19929;-84
2023/03/08 03:11:10;;;;;;;;;;;;;;;16.59;42.50;91876.75;5051332;28;19935;-85
2023/03/08 03:13:35;;;;;;;;;;;;;;;16.57;41.79;91876.56;5082349;28;19920;-84
2023/03/08 03:16:04;;;;;;;;;;;;;;;16.57;42.57;91882.75;5051877;28;19947;-84
2023/03/08 03:18:29;;;;;;;;;;;;;;;16.58;41.92;91873.31;5047707;28;19967;-85
2023/03/08 03:20:54;;;;;;;;;;;;;;;16.58;41.40;91886.22;5047708;28;19956;-84
2023/03/08 03:23:20;;;;;;;;;;;;;;;16.58;42.38;91872.56;5058526;28;19925;-85
2023/03/08 03:25:45;;;;;;;;;;;;;;;16.57;41.99;91879.28;5068243;28;19921;-85
2023/03/08 03:28:10;;;;;;;;;;;;;;;16.58;42.23;91867.13;5047911;28;19961;-85
2023/03/08 03:30:35;;;;;;;;;;;;;;;16.57;41.66;91871.84;5082664;28;19924;-85
2023/03/08 03:33:01;;;;;;;;;;;;;;;16.57;42.13;91876.56;5050483;28;19928;-85
2023/03/08 03:35:26;;;;;;;;;;;;;;;16.57;42.54;91882.00;5047295;28;20427;-85
2023/03/08 03:37:51;;;;;;;;;;;;;;;16.59;42.72;91874.75;5054451;28;19970;-84
2023/03/08 03:40:16;;;;;;;;;;;;;;;16.59;42.39;91874.03;5045426;28;19924;-84
2023/03/08 03:42:42;;;;;;;;;;;;;;;16.59;41.59;91874.03;5051461;28;20166;-85
2023/03/08 03:45:07;;;;;;;;;;;;;;;16.59;41.99;91874.75;5067653;28;19938;-84
2023/03/08 03:47:32;;;;;;;;;;;;;;;16.57;41.94;91879.28;5064179;28;19928;-84
2023/03/08 03:49:58;;;;;;;;;;;;;;;16.57;41.73;91884.75;5043816;28;19924;-84
2023/03/08 03:52:23;;;;;;;;;;;;;;;16.56;41.48;91886.00;5040885;28;19931;-84
2023/03/08 03:54:48;;;;;;;;;;;;;;;16.57;42.44;91871.84;5082297;28;19982;-85
2023/03/08 03:57:13;;;;;;;;;;;;;;;16.58;41.59;91880.75;5085872;28;19947;-85
2023/03/08 03:59:39;;;;;;;;;;;;;;;16.58;42.42;91880.75;5063799;28;19924;-84
2023/03/08 04:02:04;;;;;;;;;;;;;;;16.56;42.23;91886.75;5050550;28;19928;-84
2023/03/08 04:04:29;;;;;;;;;;;;;;;16.57;42.12;91890.94;5086250;28;19928;-85
2023/03/08 04:06:54;;;;;;;;;;;;;;;16.56;41.88;91881.28;5061627;28;20397;-85
2023/03/08 04:09:19;;;;;;;;;;;;;;;16.57;41.80;91882.00;5059615;28;20121;-84
2023/03/08 04:11:45;;;;;;;;;;;;;;;16.56;41.67;91884.00;5071912;28;19924;-85
2023/03/08 04:14:10;;;;;;;;;;;;;;;16.55;42.44;91888.00;5064774;28;19929;-85
2023/03/08 04:16:36;;;;;;;;;;;;;;;16.55;42.50;91885.28;5072321;28;20183;-84
2023/03/08 04:19:02;;;;;;;;;;;;;;;16.55;42.78;91893.47;5049706;28;20163;-84
2023/03/08 04:21:28;;;;;;;;;;;;;;;16.56;43.10;91897.66;5066674;28;19928;-84
2023/03/08 04:23:53;;;;;;;;;;;;;;;16.56;42.30;91894.19;5071455;28;20069;-84
2023/03/08 04:26:18;;;;;;;;;;;;;;;16.55;42.55;91898.91;5070582;28;19982;-85
2023/03/08 04:28:44;;;;;;;;;;;;;;;16.58;43.19;91897.13;5071563;28;19928;-85
2023/03/08 04:31:12;;;;;;;;;;;;;;;16.57;42.50;91896.38;5054229;28;19924;-85
2023/03/08 04:33:37;;;;;;;;;;;;;;;16.58;42.24;91886.94;5089189;28;19955;-85
2023/03/08 04:36:02;;;;;;;;;;;;;;;16.57;43.10;91887.47;5066393;28;19960;-84
2023/03/08 04:38:27;;;;;;;;;;;;;;;16.55;42.27;91884.53;5068005;28;19953;-84
2023/03/08 04:41:09;;;;;;;;;;;;;;;16.54;41.99;91885.81;5060741;28;19928;-84
2023/03/08 04:43:34;;;;;;;;;;;;;;;16.54;41.85;91880.34;5058869;28;19935;-85
2023/03/08 04:45:59;;;;;;;;;;;;;;;16.54;41.68;91874.91;5090329;28;19920;-84
2023/03/08 04:48:25;;;;;;;;;;;;;;;16.56;42.65;91877.81;5069947;28;19924;-85
2023/03/08 04:50:53;;;;;;;;;;;;;;;16.55;42.87;91876.38;5067527;28;19920;-85
2023/03/08 04:53:19;;;;;;;;;;;;;;;16.56;43.20;91864.19;5041618;28;19935;-85
2023/03/08 04:55:44;;;;;;;;;;;;;;;16.55;41.96;91868.19;5073346;28;19924;-84
2023/03/08 04:58:09;;;;;;;;;;;;;;;16.55;42.22;91865.44;5050228;28;19960;-85
2023/03/08 05:00:35;;;;;;;;;;;;;;;16.56;42.07;91869.66;5086703;28;19925;-85
2023/03/08 05:03:00;;;;;;;;;;;;;;;16.56;42.00;91872.38;5089440;28;19970;-84
2023/03/08 05:05:25;;;;;;;;;;;;;;;16.56;41.48;91875.09;5066308;28;19928;-85
2023/03/08 05:07:50;;;;;;;;;;;;;;;16.56;42.25;91877.81;5056598;28;19971;-85
2023/03/08 05:10:16;;;;;;;;;;;;;;;16.55;42.06;91871.63;5085488;28;20285;-85
2023/03/08 05:12:41;;;;;;;;;;;;;;;16.55;41.52;91857.28;5088983;28;19924;-85
2023/03/08 05:15:06;;;;;;;;;;;;;;;16.55;41.52;91860.00;5055124;28;20425;-84
2023/03/08 05:17:31;;;;;;;;;;;;;;;16.55;42.39;91866.19;5052224;28;19928;-85
2023/03/08 05:19:57;;;;;;;;;;;;;;;16.55;41.99;91858.00;5053081;28;20267;-84
2023/03/08 05:22:22;;;;;;;;;;;;;;;16.55;42.25;91849.81;5047629;28;20269;-85
2023/03/08 05:24:47;;;;;;;;;;;;;;;16.56;42.39;91853.28;5051811;28;19932;-85
2023/03/08 05:27:12;;;;;;;;;;;;;;;16.51;41.83;91857.59;5083463;28;19940;-86
2023/03/08 05:29:38;;;;;;;;;;;;;;;16.53;42.12;91860.53;5051960;28;19925;-86
2023/03/08 05:32:03;;;;;;;;;;;;;;;16.55;42.65;91857.28;5059760;28;20297;-85
2023/03/08 05:34:28;;;;;;;;;;;;;;;16.63;42.84;91861.53;5071829;28;20195;-84
2023/03/08 05:36:54;;;;;;;;;;;;;;;16.67;42.52;91870.09;5049218;28;19920;-84
2023/03/08 05:39:19;;;;;;;;;;;;;;;16.69;42.84;91872.28;5081442;28;19928;-85
2023/03/08 05:41:44;;;;;;;;;;;;;;;16.71;42.84;91867.03;5054662;28;20453;-88
2023/03/08 05:44:09;;;;;;;;;;;;;;;16.73;41.75;91862.50;5082513;28;19928;-84
2023/03/08 05:46:37;;;;;;;;;;;;;;;16.76;42.15;91863.44;5082039;28;19928;-86
2023/03/08 05:49:02;;;;;;;;;;;;;;;16.72;41.29;91880.13;5071476;28;19951;-89
2023/03/08 05:51:27;;;;;;;;;;;;;;;16.65;40.75;91878.09;5046989;28;20372;-86
2023/03/08 05:53:53;;;;;;;;;;;;;;;16.60;40.19;91883.69;5069052;28;20431;-85
2023/03/08 05:56:18;;;;;;;;;;;;;;;16.52;37.06;91880.88;5085578;28;19982;-87
2023/03/08 05:58:44;;;;;;;;;;;;;;;16.36;37.44;91877.34;5070487;28;19971;-86
2023/03/08 06:01:15;;;;;;;;;;;;;;;16.39;37.23;91884.44;5062711;28;19933;-88
2023/03/08 06:03:41;;;;;;;;;;;;;;;16.41;38.03;91881.91;5063653;28;19920;-88
2023/03/08 06:06:06;;;;;;;;;;;;;;;16.44;37.33;91880.84;5047585;28;19934;-87
2023/03/08 06:08:31;;;;;;;;;;;;;;;16.46;38.02;91872.84;5083080;28;20320;-86
2023/03/08 06:10:56;;;;;;;;;;;;;;;16.46;39.21;91877.56;5067168;28;19928;-86
2023/03/08 06:13:22;;;;;;;;;;;;;;;16.52;39.25;91877.44;5077888;28;19935;-88
2023/03/08 06:15:47;;;;;;;;;;;;;;;16.56;39.92;91866.91;5076330;28;20331;-85
2023/03/08 06:18:12;;;;;;;;;;;;;;;16.57;40.01;91874.56;5080943;28;19928;-86
2023/03/08 06:20:37;;;;;;;;;;;;;;;16.56;40.59;91878.56;5065599;28;21487;-87
2023/03/08 06:23:03;;;;;;;;;;;;;;;16.52;39.29;91863.78;5060482;28;19932;-87
2023/03/08 06:25:28;;;;;;;;;;;;;;;16.46;39.32;91874.84;5074611;28;19935;-87
2023/03/08 06:27:53;;;;;;;;;;;;;;;16.50;39.36;91869.78;5085751;28;19971;-86
2023/03/08 06:30:18;;;;;;;;;;;;;;;16.49;38.52;91864.84;5068050;28;19930;-86
2023/03/08 06:32:44;;;;;;;;;;;;;;;16.51;40.71;91857.59;5065614;28;20195;-87
2023/03/08 06:35:09;;;;;;;;;;;;;;;16.55;39.69;91863.47;5078576;28;19924;-87
2023/03/08 06:37:36;;;;;;;;;;;;;;;16.57;39.59;91858.19;5079290;28;20028;-87
2023/03/08 06:40:04;;;;;;;;;;;;;;;16.61;39.19;91858.59;5058511;28;19932;-86
2023/03/08 06:42:29;;;;;;;;;;;;;;;16.64;39.41;91860.28;5058387;28;19946;-88
2023/03/08 06:44:55;;;;;;;;;;;;;;;16.65;39.21;91850.81;5068924;28;20464;-88
2023/03/08 06:47:20;;;;;;;;;;;;;;;16.68;39.72;91851.72;5084472;28;19927;-86
2023/03/08 06:49:45;;;;;;;;;;;;;;;16.69;39.63;91850.47;5044448;28;20007;-90
2023/03/08 06:52:10;;;;;;;;;;;;;;;16.66;39.59;91846.84;5080781;28;19928;-88
2023/03/08 06:54:36;;;;;;;;;;;;;;;16.71;39.77;91839.75;5074066;28;19928;-88
2023/03/08 06:57:01;;;;;;;;;;;;;;;16.71;39.58;91845.94;5060079;28;20321;-88
2023/03/08 06:59:26;;;;;;;;;;;;;;;16.68;39.50;91841.53;5062558;28;19927;-88
2023/03/08 07:01:51;;;;;;;;;;;;;;;16.73;39.71;91845.41;5068437;28;19987;-86
2023/03/08 07:04:17;;;;;;;;;;;;;;;16.72;39.34;91844.66;5047845;28;19936;-87
2023/03/08 07:06:42;;;;;;;;;;;;;;;16.73;39.69;91837.94;5051273;28;19968;-88
2023/03/08 07:09:09;;;;;;;;;;;;;;;16.79;39.60;91833.06;5054215;28;19989;-91
2023/03/08 07:11:37;;;;;;;;;;;;;;;16.82;39.56;91839.44;5061305;28;19936;-86
2023/03/08 07:14:02;;;;;;;;;;;;;;;16.81;39.70;91837.25;5054072;28;19924;-90
2023/03/08 07:16:28;;;;;;;;;;;;;;;16.83;39.85;91819.09;5051646;28;19931;-89
2023/03/08 07:18:53;;;;;;;;;;;;;;;16.85;39.55;91815.81;5069028;28;19932;-89
2023/03/08 07:21:18;;;;;;;;;;;;;;;16.83;39.31;91830.00;5048848;28;19928;-86
2023/03/08 07:23:43;;;;;;;;;;;;;;;16.85;39.55;91830.19;5059004;28;19967;-88
2023/03/08 07:26:09;;;;;;;;;;;;;;;16.87;39.99;91824.94;5087956;28;19931;-86
2023/03/08 07:28:34;;;;;;;;;;;;;;;16.87;38.34;91822.19;5072741;28;20385;-87
2023/03/08 07:30:59;;;;;;;;;;;;;;;16.69;37.51;91823.19;5045866;28;19933;-86
2023/03/08 07:33:25;;;;;;;;;;;;;;;16.63;36.92;91831.53;5063783;28;20007;-86
2023/03/08 07:35:50;;;;;;;;;;;;;;;16.67;36.50;91831.19;5083454;28;19947;-88
2023/03/08 07:38:15;;;;;;;;;;;;;;;16.66;36.76;91840.66;5068182;28;20007;-89
2023/03/08 07:40:41;;;;;;;;;;;;;;;16.67;37.15;91844.84;5062716;28;20353;-90
2023/03/08 07:43:06;;;;;;;;;;;;;;;16.70;37.99;91855.38;5070616;28;19982;-89
2023/03/08 07:45:31;;;;;;;;;;;;;;;16.75;38.34;91862.69;5070932;28;19972;-91
2023/03/08 07:47:58;;;;;;;;;;;;;;;16.76;38.53;91872.34;5052640;28;19955;-91
2023/03/08 07:50:24;;;;;;;;;;;;;;;16.76;39.05;91877.81;5077648;28;19986;-91
2023/03/08 07:52:50;;;;;;;;;;;;;;;16.77;39.16;91876.53;5053481;28;19924;-88
2023/03/08 07:57:44;;;;;;;;;;;;;;;16.83;39.10;91883.84;5060766;28;20142;-91
2023/03/08 08:00:09;;;;;;;;;;;;;;;16.90;39.09;91880.41;5026559;28;20546;-90
2023/03/08 08:02:35;;;;;;;;;;;;;;;16.91;38.99;91881.88;5027818;28;19925;-92
2023/03/08 08:05:00;;;;;;;;;;;;;;;16.90;39.14;91870.22;5032571;28;20628;-90
2023/03/08 08:07:25;;;;;;;;;;;;;;;16.94;38.83;91875.34;5037615;28;19925;-89
2023/03/08 08:09:51;;;;;;;;;;;;;;;16.94;39.27;91867.88;5054062;28;19944;-88
2023/03/08 08:12:16;;;;;;;;;;;;;;;16.95;38.84;91861.16;5070098;28;19924;-90
2023/03/08 08:14:41;;;;;;;;;;;;;;;16.94;39.32;91870.63;5018916;28;20031;-92
2023/03/08 08:17:07;;;;;;;;;;;;;;;16.95;39.46;91865.88;5070980;28;19982;-90
2023/03/08 08:19:32;;;;;;;;;;;;;;;16.99;39.47;91866.28;5073149;28;19952;-92
2023/03/08 08:21:58;;;;;;;;;;;;;;;17.02;39.12;91865.19;5062035;28;19948;-91
2023/03/08 08:24:23;;;;;;;;;;;;;;;17.03;39.44;91853.75;5072906;28;19920;-91
2023/03/08 08:26:48;;;;;;;;;;;;;;;16.99;39.23;91861.53;5062870;28;20056;-88
2023/03/08 08:29:14;;;;;;;;;;;;;;;17.02;39.18;91862.47;5034636;28;19924;-90
2023/03/08 08:31:40;;;;;;;;;;;;;;;17.01;39.48;91861.00;5038107;28;19967;-88
2023/03/08 08:34:06;;;;;;;;;;;;;;;17.00;39.03;91865.00;5062665;28;20010;-90
2023/03/08 08:36:33;;;;;;;;;;;;;;;16.97;39.09;91855.91;5049939;28;19928;-90
2023/03/08 08:38:58;;;;;;;;;;;;;;;16.98;39.41;91857.34;5058609;28;19959;-91
2023/03/08 08:41:24;;;;;;;;;;;;;;;17.01;39.24;91853.56;5042798;28;19924;-91
2023/03/08 08:43:49;;;;;;;;;;;;;;;17.04;39.67;91840.81;5071266;28;20005;-93
2023/03/08 08:46:15;;;;;;;;;;;;;;;17.02;39.63;91837.91;5034954;28;19925;-88
2023/03/08 08:48:41;;;;;;;;;;;;;;;17.04;39.58;91846.28;5052466;28;19920;-92
2023/03/08 08:51:06;;;;;;;;;;;;;;;16.98;37.73;91840.25;5024200;28;19921;-89
2023/03/08 08:53:32;;;;;;;;;;;;;;;16.92;38.11;91834.22;5049512;28;20077;-89
2023/03/08 08:55:58;;;;;;;;;;;;;;;16.91;37.20;91833.47;5048654;28;19966;-89
2023/03/08 08:58:24;;;;;;;;;;;;;;;16.90;37.44;91831.28;5036160;28;20441;-89
2023/03/08 09:00:50;;;;;;;;;;;;;;;16.90;37.80;91840.19;5050191;28;19929;-88
2023/03/08 09:03:16;;;;;;;;;;;;;;;16.91;38.00;91833.47;5037137;28;19932;-85
2023/03/08 09:05:41;;;;;;;;;;;;;;;16.93;38.55;91827.47;5044313;28;19929;-90
2023/03/08 09:08:15;;;;;;;;;;;;;;;16.92;38.67;91817.84;5033810;28;19979;-91
2023/03/08 09:10:41;;;;;;;;;;;;;;;16.93;38.77;91824.75;5051857;28;19921;-88
2023/03/08 09:13:07;;;;;;;;;;;;;;;16.94;38.99;91818.03;5053156;28;20301;-89
2023/03/08 09:15:33;;;;;;;;;;;;;;;16.94;39.07;91815.28;5050355;28;19928;-91
2023/03/08 09:17:58;;;;;;;;;;;;;;;16.93;38.95;91802.91;5026239;28;19929;-87
2023/03/08 09:20:23;;;;;;;;;;;;;;;16.92;39.59;91810.38;5043769;28;19939;-88
2023/03/08 09:22:50;;;;;;;;;;;;;;;16.94;39.41;91801.66;5048907;28;19925;-88
2023/03/08 09:25:16;;;;;;;;;;;;;;;16.92;39.33;91799.47;5049782;28;19975;-90
2023/03/08 09:27:41;;;;;;;;;;;;;;;16.95;38.93;91794.91;5041256;28;19924;-88
2023/03/08 09:30:11;;;;;;;;;;;;;;;16.93;39.14;91798.19;5046844;28;19928;-87
2023/03/08 09:32:36;;;;;;;;;;;;;;;16.92;39.20;91791.28;5045988;28;19952;-89
2023/03/08 09:35:03;;;;;;;;;;;;;;;16.96;39.20;91788.19;5042441;28;20568;-88
2023/03/08 09:37:29;;;;;;;;;;;;;;;16.97;39.07;91784.19;5041076;28;19940;-86
2023/03/08 09:39:55;;;;;;;;;;;;;;;16.97;39.07;91778.72;5044180;28;19956;-87
2023/03/08 09:42:26;;;;;;;;;;;;;;;16.98;39.34;91778.19;5038851;28;19991;-86
2023/03/08 09:45:13;;;;;;;;;;;;;;;16.99;39.36;91766.00;5038724;28;20091;-91
2023/03/08 09:48:05;;;;;;;;;;;;;;;17.03;39.08;91755.47;5043466;28;19979;-88
2023/03/08 09:50:31;;;;;;;;;;;;;;;17.06;39.26;91753.66;5043520;28;19921;-91
2023/03/08 09:53:06;;;;;;;;;;;;;;;17.00;39.14;91762.00;5050217;28;19928;-90
2023/03/08 09:55:33;;;;;;;;;;;;;;;17.05;38.85;91754.94;5032641;28;19929;-89
2023/03/08 09:58:00;;;;;;;;;;;;;;;17.07;38.76;91736.75;5043615;28;20024;-86
2023/03/08 10:00:30;;;;;;;;;;;;;;;17.09;39.42;91739.66;5074650;28;19931;-88
2023/03/08 10:03:11;;;;;;;;;;;;;;;17.10;38.98;91737.66;5033067;28;19925;-86
2023/03/08 10:05:40;;;;;;;;;;;;;;;17.09;39.22;91736.19;5061702;28;19936;-88
2023/03/08 10:08:22;;;;;;;;;;;;;;;17.07;38.79;91736.75;5037565;28;19924;-84
2023/03/08 10:10:49;;;;;;;;;;;;;;;17.07;38.67;91734.00;5044999;28;19939;-86
2023/03/08 10:13:21;;;;;;;;;;;;;;;17.09;38.96;91725.28;5029085;28;19931;-87
2023/03/08 10:15:48;;;;;;;;;;;;;;;17.08;39.06;91708.16;5065561;28;19925;-88
2023/03/08 10:18:24;;;;;;;;;;;;;;;17.08;38.99;91693.78;5031771;28;20351;-89
2023/03/08 10:20:49;;;;;;;;;;;;;;;17.10;39.42;91696.72;5060319;28;20394;-89
2023/03/08 10:23:15;;;;;;;;;;;;;;;17.06;39.54;91683.41;5051605;28;19925;-88
2023/03/08 10:25:41;;;;;;;;;;;;;;;17.05;39.44;91689.41;5043431;28;19994;-87
2023/03/08 10:28:13;;;;;;;;;;;;;;;17.06;39.45;91683.41;5044944;28;19999;-91
2023/03/08 10:30:44;;;;;;;;;;;;;;;17.05;39.50;91676.50;5049236;28;20448;-90
2023/03/08 10:33:10;;;;;;;;;;;;;;;17.09;38.99;91671.41;5052286;28;20003;-91
2023/03/08 10:35:37;;;;;;;;;;;;;;;17.06;39.49;91660.84;5038871;28;19921;-89
2023/03/08 10:38:03;;;;;;;;;;;;;;;17.06;39.51;91652.66;5034083;28;19950;-89
2023/03/08 10:40:28;;;;;;;;;;;;;;;17.07;39.22;91648.66;5054963;28;20139;-88
2023/03/08 10:42:58;;;;;;;;;;;;;;;17.07;39.68;91643.91;5068502;28;19947;-89
2023/03/08 10:45:24;;;;;;;;;;;;;;;17.06;39.61;91628.09;5050132;28;19932;-89
2023/03/08 10:47:55;;;;;;;;;;;;;;;17.08;39.45;91623.53;5067471;28;19951;-91
2023/03/08 10:50:21;;;;;;;;;;;;;;;17.08;39.60;91625.53;5052137;28;19924;-89
2023/03/08 10:52:47;;;;;;;;;;;;;;;17.07;39.14;91626.81;5028227;28;19932;-89
2023/03/08 10:55:13;;;;;;;;;;;;;;;17.06;39.41;91623.34;5067937;28;19920;-91
2023/03/08 10:57:39;;;;;;;;;;;;;;;17.06;39.51;91617.16;5028602;28;19925;-92
2023/03/08 11:00:20;;;;;;;;;;;;;;;17.05;39.64;91621.91;4988419;28;19989;-89
2023/03/08 11:02:46;;;;;;;;;;;;;;;17.07;39.30;91619.34;5007793;28;20486;-89
2023/03/08 11:05:21;;;;;;;;;;;;;;;17.05;39.44;91612.97;4965577;28;19922;-87
2023/03/08 11:07:50;;;;;;;;;;;;;;;17.06;39.57;91606.97;5004920;28;20558;-86
2023/03/08 11:10:16;;;;;;;;;;;;;;;17.07;39.86;91594.06;5004213;28;19937;-85
2023/03/08 11:12:42;;;;;;;;;;;;;;;17.06;39.51;91581.69;4987718;28;19930;-86
2023/03/08 11:15:14;;;;;;;;;;;;;;;17.06;39.60;91573.47;4980995;28;19925;-88
2023/03/08 11:17:39;;;;;;;;;;;;;;;17.06;39.70;91568.03;4982609;28;20016;-87
2023/03/08 11:20:15;;;;;;;;;;;;;;;17.08;39.49;91568.94;4975537;28;19961;-89
2023/03/08 11:22:40;;;;;;;;;;;;;;;17.10;39.61;91549.97;4992295;28;20327;-88
2023/03/08 11:25:08;;;;;;;;;;;;;;;17.11;39.78;91542.53;4989938;28;20065;-87
2023/03/08 11:27:33;;;;;;;;;;;;;;;17.12;39.49;91538.53;5004011;28;19962;-88
2023/03/08 11:30:05;;;;;;;;;;;;;;;17.11;39.63;91535.06;4987842;28;19961;-90
2023/03/08 11:32:33;;;;;;;;;;;;;;;17.10;39.53;91536.34;5030469;28;20175;-88
2023/03/08 11:35:04;;;;;;;;;;;;;;;17.12;39.60;91552.16;5064157;28;20378;-88
2023/03/08 11:37:37;;;;;;;;;;;;;;;17.09;39.50;91548.56;5031810;28;19979;-89
2023/03/08 11:40:06;;;;;;;;;;;;;;;17.11;39.67;91543.25;5040633;28;19945;-90
2023/03/08 11:42:41;;;;;;;;;;;;;;;17.11;39.93;91545.97;5043707;28;19925;-87
2023/03/08 11:45:06;;;;;;;;;;;;;;;17.12;39.66;91527.59;5025582;28;19995;-87
2023/03/08 11:47:45;;;;;;;;;;;;;;;17.12;39.66;91516.69;5043843;28;20019;-91
2023/03/08 11:50:15;;;;;;;;;;;;;;;17.13;39.76;91524.31;5031060;28;19924;-90
2023/03/08 11:52:41;;;;;;;;;;;;;;;17.14;39.57;91530.50;5044488;28;20399;-89
2023/03/08 11:55:22;;;;;;;;;;;;;;;17.17;39.78;91512.31;5037224;28;19932;-89
2023/03/08 11:57:54;;;;;;;;;;;;;;;17.17;39.98;91517.78;5044832;28;19932;-89
2023/03/08 12:00:32;;;;;;;;;;;;;;;17.16;39.83;91516.31;5036991;28;19925;-88
2023/03/08 12:02:58;;;;;;;;;;;;;;;17.14;39.76;91525.78;5040265;28;20019;-88
2023/03/08 12:05:30;;;;;;;;;;;;;;;17.16;39.65;91538.16;5044673;28;20074;-86
2023/03/08 12:07:56;;;;;;;;;;;;;;;17.17;39.88;91531.41;5031370;28;19987;-87
2023/03/08 12:10:24;;;;;;;;;;;;;;;17.17;39.66;91534.88;5055402;28;20063;-85
2023/03/08 12:13:00;;;;;;;;;;;;;;;17.16;39.57;91530.69;5045416;28;20394;-86
2023/03/08 12:15:25;;;;;;;;;;;;;;;17.16;39.82;91519.78;5031773;28;20106;-88
2023/03/08 12:17:52;;;;;;;;;;;;;;;17.17;40.01;91515.78;5045292;28;20007;-89
2023/03/08 12:20:18;;;;;;;;;;;;;;;17.18;39.69;91527.41;5050008;28;19935;-86
2023/03/08 12:22:55;;;;;;;;;;;;;;;17.15;40.15;91542.88;5025225;28;19955;-89
2023/03/08 12:25:28;;;;;;;;;;;;;;;17.14;40.24;91544.88;5034365;28;19920;-90
2023/03/08 12:27:53;;;;;;;;;;;;;;;17.14;40.36;91536.69;5030623;28;19956;-89
2023/03/08 12:30:22;;;;;;;;;;;;;;;17.15;40.07;91537.44;5063259;28;19920;-88
2023/03/08 12:32:48;;;;;;;;;;;;;;;17.13;39.95;91540.72;5046639;28;19932;-91
2023/03/08 12:35:13;;;;;;;;;;;;;;;17.15;40.24;91540.16;5039371;28;19928;-86
2023/03/08 12:37:39;;;;;;;;;;;;;;;17.16;40.24;91551.81;5071437;28;19991;-91
2023/03/08 12:40:25;;;;;;;;;;;;;;;17.19;40.12;91545.97;5025519;28;19983;-88
2023/03/08 12:42:50;;;;;;;;;;;;;;;17.19;40.28;91531.59;5047131;28;20402;-89
2023/03/08 12:45:18;;;;;;;;;;;;;;;17.17;39.98;91506.84;5038937;28;19920;-88
2023/03/08 12:47:55;;;;;;;;;;;;;;;17.15;40.25;91499.22;5044241;28;19988;-87